Mertzon, Texas
Current Conditions -  °F | °C
As of 9:51 AM on Sunday 23 Nov 2014 (Local Time) from KSJT Reporting Station
Clear Clear  
Wind Chill: 65°   Ceiling: Unl
Heat Index: 65°   Visibility: 10mi
Dew Point: 37°   Wind: 20mph
Humidity: 36%   Direction: 260°W
Pressure: 29.67"   Gusts: 28mph
Location:  31.26°N, 100.82°W
Report Text: KSJT 231551Z 26017G24KT 10SM CLR 18/03 A2967 RMK AO2 SLP038 T01830028
Loading
Personal Weather Stations






























Interactive Weather Map New forecast layout! Learn more

10-Day Weather Forecast

Advertisements
Track Severe Weather on mobile